createdAt,value
2018-07-10T00:00:42.226Z,69.82
2018-07-10T00:03:22.647Z,69.71
2018-07-10T00:08:11.371Z,69.95
2018-07-10T00:11:42.959Z,71.19
2018-07-10T00:14:11.326Z,71.22
2018-07-10T00:16:39.637Z,71.02
2018-07-10T00:19:07.979Z,71.71
2018-07-10T00:21:36.274Z,70.64
2018-07-10T00:24:04.643Z,70.82
2018-07-10T00:26:32.982Z,70.02
2018-07-10T00:29:01.323Z,69.95
2018-07-10T00:31:29.747Z,70.28
2018-07-10T00:33:58.070Z,69.30
2018-07-10T00:36:26.515Z,68.77
2018-07-10T00:39:02.082Z,69.49
2018-07-10T00:41:32.781Z,68.94
2018-07-10T00:44:02.014Z,69.32
2018-07-10T00:46:31.578Z,69.59
2018-07-10T00:48:59.978Z,69.03
2018-07-10T00:51:29.468Z,69.74
2018-07-10T00:53:57.827Z,68.93
2018-07-10T00:56:26.146Z,68.69
2018-07-10T00:58:55.662Z,68.24
2018-07-10T01:01:24.826Z,67.42
2018-07-10T01:03:53.250Z,67.66
2018-07-10T01:06:21.887Z,67.00
2018-07-10T01:08:50.345Z,67.44
2018-07-10T01:11:19.461Z,67.00
2018-07-10T01:13:48.866Z,67.07
2018-07-10T01:16:19.270Z,66.95
2018-07-10T01:18:47.757Z,68.11
2018-07-10T01:21:18.496Z,69.71
2018-07-10T01:23:50.396Z,71.48
2018-07-10T01:26:18.719Z,71.91
2018-07-10T01:28:47.074Z,72.00
2018-07-10T01:31:15.403Z,71.69
2018-07-10T01:33:43.791Z,73.57
2018-07-10T01:36:12.070Z,73.78
2018-07-10T01:38:40.403Z,73.73
2018-07-10T01:41:08.711Z,73.53
2018-07-10T01:43:37.063Z,74.10
2018-07-10T01:46:05.574Z,74.02
2018-07-10T01:48:33.938Z,74.37
2018-07-10T01:51:02.276Z,73.06
2018-07-10T01:53:30.623Z,72.93
2018-07-10T01:55:58.923Z,72.26
2018-07-10T01:58:27.465Z,73.15
2018-07-10T02:00:55.757Z,73.28
2018-07-10T02:03:24.138Z,72.32
2018-07-10T02:05:52.500Z,73.06
2018-07-10T02:08:20.883Z,73.33
2018-07-10T02:10:49.239Z,73.32
2018-07-10T02:13:17.573Z,72.45
2018-07-10T02:15:45.920Z,72.68
2018-07-10T02:18:14.209Z,71.98
2018-07-10T02:20:53.365Z,72.46
2018-07-10T02:23:22.117Z,72.35
2018-07-10T02:25:51.012Z,72.06
2018-07-10T02:28:19.839Z,72.93
2018-07-10T02:30:48.762Z,72.94
2018-07-10T02:33:17.331Z,72.11
2018-07-10T02:35:45.711Z,71.96
2018-07-10T02:38:14.378Z,72.14
2018-07-10T02:40:44.214Z,72.52
2018-07-10T02:43:12.620Z,71.76
2018-07-10T02:45:41.038Z,72.33
2018-07-10T02:48:09.357Z,71.74
2018-07-10T02:50:37.918Z,72.35
2018-07-10T02:53:06.456Z,72.73
2018-07-10T02:55:34.854Z,73.12
2018-07-10T02:58:03.174Z,72.27
2018-07-10T03:00:31.522Z,72.51
2018-07-10T03:03:00.991Z,72.52
2018-07-10T03:05:29.359Z,72.54
2018-07-10T03:07:57.806Z,72.30
2018-07-10T03:10:26.231Z,72.35
2018-07-10T03:12:54.686Z,71.74
2018-07-10T03:15:23.045Z,72.75
2018-07-10T03:17:52.692Z,72.69
2018-07-10T03:20:21.158Z,72.50
2018-07-10T03:22:49.516Z,73.39
2018-07-10T03:25:17.932Z,74.43
2018-07-10T03:27:46.516Z,75.06
2018-07-10T03:30:15.198Z,75.89
2018-07-10T03:32:43.614Z,75.78
2018-07-10T03:35:11.936Z,76.00
2018-07-10T03:37:40.383Z,76.43
2018-07-10T03:40:08.742Z,76.68
2018-07-10T03:42:37.075Z,76.55
2018-07-10T03:45:05.436Z,76.11
2018-07-10T03:47:33.756Z,75.33
2018-07-10T03:50:02.103Z,75.48
2018-07-10T03:52:32.873Z,73.42
2018-07-10T03:55:03.011Z,73.50
2018-07-10T03:57:31.411Z,72.58
2018-07-10T04:00:06.784Z,73.83
2018-07-10T04:02:35.091Z,73.96
2018-07-10T04:05:04.079Z,72.68
2018-07-10T04:07:32.807Z,73.39
2018-07-10T04:10:01.140Z,73.23
2018-07-10T04:12:33.565Z,73.87
2018-07-10T04:15:02.562Z,74.03
2018-07-10T04:17:35.710Z,73.71
2018-07-10T04:20:04.051Z,74.30
2018-07-10T04:22:33.235Z,72.90
2018-07-10T04:25:02.175Z,73.28
2018-07-10T04:27:36.174Z,73.78
2018-07-10T04:30:13.008Z,73.31
2018-07-10T04:32:42.042Z,74.13
2018-07-10T04:35:13.730Z,74.21
2018-07-10T04:37:45.538Z,73.03
2018-07-10T04:40:14.103Z,74.11
2018-07-10T04:43:49.255Z,73.36
2018-07-10T04:46:17.653Z,73.09
2018-07-10T04:48:47.507Z,72.93
2018-07-10T04:51:30.867Z,72.80
2018-07-10T04:54:02.892Z,72.02
2018-07-10T04:56:31.395Z,71.05
2018-07-10T04:58:59.750Z,71.04
2018-07-10T05:01:35.394Z,70.38
2018-07-10T05:04:04.783Z,71.32
2018-07-10T05:06:35.457Z,69.89
2018-07-10T05:09:04.987Z,69.58
2018-07-10T05:11:35.644Z,69.74
2018-07-10T05:14:04.918Z,68.52
2018-07-10T05:16:34.278Z,70.63
2018-07-10T05:19:02.778Z,70.22
2018-07-10T05:21:31.195Z,71.49
2018-07-10T05:24:01.428Z,71.22
2018-07-10T05:26:29.831Z,70.21
2018-07-10T05:28:58.396Z,69.94
2018-07-10T05:31:28.298Z,69.14
2018-07-10T05:33:56.927Z,68.83
2018-07-10T05:36:25.509Z,68.05
2018-07-10T05:39:10.889Z,67.99
2018-07-10T05:41:40.819Z,68.78
2018-07-10T05:44:09.280Z,68.34
2018-07-10T05:46:37.686Z,69.13
2018-07-10T05:49:06.675Z,69.08
2018-07-10T05:51:38.362Z,69.33
2018-07-10T05:54:08.355Z,69.12
2018-07-10T05:56:37.749Z,68.84
2018-07-10T05:59:07.266Z,69.48
2018-07-10T06:01:37.087Z,69.74
2018-07-10T06:04:05.998Z,69.03
2018-07-10T06:06:34.544Z,68.82
2018-07-10T06:09:02.987Z,69.35
2018-07-10T06:11:31.325Z,69.77
2018-07-10T06:14:07.145Z,69.11
2018-07-10T06:16:40.828Z,68.66
2018-07-10T06:19:10.418Z,68.60
2018-07-10T06:21:43.373Z,68.44
2018-07-10T06:24:16.228Z,68.57
2018-07-10T06:26:45.309Z,68.64
2018-07-10T06:29:20.008Z,68.21
2018-07-10T06:31:51.223Z,68.19
2018-07-10T06:34:21.091Z,67.36
2018-07-10T06:36:54.430Z,67.49
2018-07-10T06:39:23.147Z,66.83
2018-07-10T06:42:15.328Z,66.41
2018-07-10T06:44:47.381Z,67.00
2018-07-10T06:47:20.316Z,67.47
2018-07-10T06:52:48.850Z,63.99
2018-07-10T06:55:18.360Z,63.22
2018-07-10T06:57:50.747Z,63.00
2018-07-10T07:00:19.051Z,62.58
2018-07-10T07:02:47.925Z,63.69
2018-07-10T07:05:16.398Z,63.31
2018-07-10T07:07:57.286Z,64.07
2018-07-10T07:10:43.129Z,62.93
2018-07-10T07:13:33.739Z,63.50
2018-07-10T07:16:14.035Z,64.36
2018-07-10T07:18:57.918Z,65.03
2018-07-10T07:21:49.628Z,63.79
2018-07-10T07:31:00.332Z,61.74
2018-07-10T07:33:46.308Z,61.77
2018-07-10T07:36:42.791Z,60.38
2018-07-10T07:42:11.334Z,59.88
2018-07-10T07:45:01.252Z,60.65
2018-07-10T07:47:50.293Z,60.71
2018-07-10T07:50:21.412Z,61.62
2018-07-10T07:53:01.738Z,61.41
2018-07-10T07:55:39.539Z,61.04
2018-07-10T07:58:34.020Z,60.65
2018-07-10T08:04:08.421Z,59.81
2018-07-10T08:07:16.907Z,60.88
2018-07-10T08:19:34.732Z,60.35
2018-07-10T08:22:06.135Z,60.61
2018-07-10T08:24:51.554Z,60.62
2018-07-10T08:28:01.309Z,61.62
2018-07-10T08:30:37.297Z,62.04
2018-07-10T08:33:14.222Z,60.58
2018-07-10T08:35:51.587Z,62.03
2018-07-10T08:38:57.392Z,61.45
2018-07-10T08:41:42.740Z,61.23
2018-07-10T08:44:26.620Z,61.87
2018-07-10T08:46:59.582Z,60.77
2018-07-10T08:49:34.338Z,62.25
2018-07-10T08:52:10.291Z,62.20
2018-07-10T08:54:47.603Z,64.77
2018-07-10T08:57:18.234Z,64.38
2018-07-10T08:59:52.327Z,65.43
2018-07-10T09:02:26.055Z,66.37
2018-07-10T09:05:00.745Z,67.37
2018-07-10T09:07:35.229Z,68.60
2018-07-10T09:10:16.495Z,69.94
2018-07-10T09:13:04.382Z,69.81
2018-07-10T09:15:43.479Z,67.30
2018-07-10T09:18:17.495Z,68.29
2018-07-10T09:21:00.293Z,70.28
2018-07-10T09:23:39.159Z,70.98
2018-07-10T09:26:12.938Z,70.41
2018-07-10T09:28:45.386Z,68.75
2018-07-10T09:31:15.270Z,68.12
2018-07-10T09:33:56.912Z,67.43
2018-07-10T09:36:39.019Z,66.73
2018-07-10T09:39:18.587Z,66.30
2018-07-10T09:41:59.012Z,65.70
2018-07-10T09:44:53.312Z,64.08
2018-07-10T09:47:34.887Z,64.64
2018-07-10T09:50:13.452Z,63.65
2018-07-10T09:52:55.529Z,64.05
2018-07-10T09:55:41.828Z,64.00
2018-07-10T09:58:15.590Z,65.58
2018-07-10T10:00:56.765Z,66.03
2018-07-10T10:03:29.635Z,67.96
2018-07-10T10:06:02.666Z,67.45
2018-07-10T10:08:36.579Z,69.42
2018-07-10T10:11:06.690Z,68.98
2018-07-10T10:13:35.853Z,68.74
2018-07-10T10:16:07.888Z,67.26
2018-07-10T10:18:39.828Z,67.24
2018-07-10T10:21:12.498Z,68.03
2018-07-10T10:23:48.884Z,68.36
2018-07-10T10:26:25.025Z,72.25
2018-07-10T10:29:05.367Z,74.43
2018-07-10T10:31:38.088Z,74.25
2018-07-10T10:34:12.464Z,77.85
2018-07-10T10:36:49.556Z,76.27
2018-07-10T10:39:20.094Z,75.79
2018-07-10T10:41:55.216Z,73.48
2018-07-10T10:44:29.094Z,73.59
2018-07-10T10:47:05.557Z,73.06
2018-07-10T10:49:35.766Z,72.89
2018-07-10T10:52:09.829Z,71.99
2018-07-10T10:54:40.986Z,71.85
2018-07-10T10:57:13.854Z,71.10
2018-07-10T10:59:50.641Z,69.77
2018-07-10T11:02:28.466Z,69.50
2018-07-10T11:05:03.333Z,69.12
2018-07-10T12:49:11.268Z,78.34
2018-07-10T12:51:54.373Z,78.86
2018-07-10T12:54:43.698Z,77.55
2018-07-10T12:57:33.058Z,78.83
2018-07-10T13:02:59.754Z,78.55
2018-07-10T13:05:39.332Z,76.79
2018-07-10T13:08:18.403Z,77.59
2018-07-10T13:11:08.835Z,78.53
2018-07-10T13:13:44.207Z,78.28
2018-07-10T13:16:18.535Z,79.42
2018-07-10T13:18:50.757Z,77.78
2018-07-10T13:21:27.418Z,79.46
2018-07-10T13:24:01.724Z,80.97
2018-07-10T13:26:51.600Z,80.37
2018-07-10T13:29:27.531Z,79.73
2018-07-10T13:32:23.363Z,80.39
2018-07-10T13:34:59.657Z,79.80
2018-07-10T13:37:33.307Z,79.54
2018-07-10T13:40:07.185Z,81.90
2018-07-10T13:43:08.809Z,81.79
2018-07-10T13:45:44.487Z,82.33
2018-07-10T13:48:28.377Z,83.31
2018-07-10T13:50:59.019Z,83.49
2018-07-10T13:53:32.173Z,83.64
2018-07-10T13:56:17.566Z,83.05
2018-07-10T13:59:09.699Z,85.68
2018-07-10T14:01:52.782Z,84.55
2018-07-10T14:04:31.207Z,84.96
2018-07-10T14:07:07.540Z,84.58
2018-07-10T14:09:49.475Z,84.37
2018-07-10T14:15:11.331Z,84.62
2018-07-10T14:17:45.417Z,85.09
2018-07-10T14:20:34.251Z,82.44
2018-07-10T14:23:11.596Z,84.50
2018-07-10T14:25:44.855Z,83.53
2018-07-10T14:31:04.430Z,82.84
2018-07-10T14:33:40.447Z,82.76
2018-07-10T14:36:16.874Z,83.91
2018-07-10T14:38:56.545Z,80.94
2018-07-10T14:41:38.006Z,82.49
2018-07-10T14:44:25.774Z,82.15
2018-07-10T14:46:59.285Z,82.25
2018-07-10T14:49:51.540Z,82.15
2018-07-10T14:52:29.535Z,83.62
2018-07-10T14:55:17.189Z,81.87
2018-07-10T14:57:54.057Z,83.11
2018-07-10T15:00:29.179Z,83.07
2018-07-10T15:05:42.590Z,84.14
2018-07-10T15:08:13.499Z,83.25
2018-07-10T15:10:46.818Z,83.89
2018-07-10T15:13:22.218Z,83.37
2018-07-10T15:16:03.511Z,83.65
2018-07-10T15:18:51.990Z,83.20
2018-07-10T15:21:25.135Z,82.76
2018-07-10T15:23:54.873Z,83.47
2018-07-10T15:26:26.013Z,85.18
2018-07-10T15:29:21.534Z,83.85
2018-07-10T15:31:54.157Z,86.12
2018-07-10T15:34:28.616Z,86.11
2018-07-10T15:39:39.407Z,86.72
2018-07-10T15:42:09.813Z,87.27
2018-07-10T15:44:46.884Z,86.46
2018-07-10T15:47:16.958Z,86.86
2018-07-10T15:49:48.393Z,85.86
2018-07-10T15:52:20.034Z,85.98
2018-07-10T15:54:49.584Z,87.53
2018-07-10T15:57:24.634Z,87.26
2018-07-10T15:59:54.184Z,87.07
2018-07-10T16:02:25.522Z,86.40
2018-07-10T16:04:55.486Z,86.20
2018-07-10T16:10:20.742Z,86.60
2018-07-10T16:12:59.297Z,86.30
2018-07-10T16:15:39.382Z,85.95
2018-07-10T16:18:14.583Z,87.00
2018-07-10T16:21:06.673Z,85.61
2018-07-10T16:23:41.934Z,86.56
2018-07-10T16:26:41.683Z,87.17
2018-07-10T16:29:16.809Z,85.61
2018-07-10T16:31:54.493Z,86.05
2018-07-10T16:34:28.784Z,85.68
2018-07-10T16:37:05.962Z,86.99
2018-07-10T16:39:47.380Z,86.45
2018-07-10T16:48:19.175Z,87.76
2018-07-10T16:51:31.165Z,86.98
2018-07-10T16:54:07.808Z,86.11
2018-07-10T16:56:45.886Z,87.20
2018-07-10T16:59:39.448Z,85.38
2018-07-10T17:02:09.345Z,86.84
2018-07-10T17:04:44.555Z,86.93
2018-07-10T17:07:25.676Z,87.53
2018-07-10T17:10:03.644Z,88.59
2018-07-10T17:12:43.989Z,88.96
2018-07-10T17:18:02.516Z,88.59
2018-07-10T17:20:39.293Z,87.79
2018-07-10T17:26:07.662Z,87.99
2018-07-10T17:28:49.067Z,88.40
2018-07-10T17:31:37.214Z,87.94
2018-07-10T17:34:17.297Z,87.33
2018-07-10T17:37:18.982Z,87.55
2018-07-10T17:39:57.119Z,87.26
2018-07-10T17:42:39.759Z,87.40
2018-07-10T17:45:25.524Z,86.68
2018-07-10T17:48:14.264Z,87.76
2018-07-10T17:50:45.921Z,88.24
2018-07-10T17:53:33.494Z,87.47
2018-07-10T17:56:08.990Z,87.45
2018-07-10T17:58:48.172Z,88.27
2018-07-10T18:01:22.197Z,88.62
2018-07-10T18:06:59.097Z,86.85
2018-07-10T18:09:30.682Z,86.13
2018-07-10T18:12:06.072Z,87.66
2018-07-10T18:14:36.285Z,87.19
2018-07-10T18:17:14.487Z,87.48
2018-07-10T18:19:52.418Z,86.22
2018-07-10T18:22:23.790Z,86.49
2018-07-10T18:24:56.506Z,86.88
2018-07-10T18:27:30.488Z,86.54
2018-07-10T18:30:01.611Z,86.87
2018-07-10T18:32:32.687Z,86.74
2018-07-10T18:35:03.396Z,86.19
2018-07-10T18:37:37.425Z,86.45
2018-07-10T18:40:09.370Z,86.95
2018-07-10T18:42:47.231Z,86.66
2018-07-10T18:45:23.915Z,86.44
2018-07-10T18:47:57.306Z,87.09
2018-07-10T18:50:35.077Z,86.55
2018-07-10T18:53:19.102Z,86.61
2018-07-10T18:59:19.474Z,86.86
2018-07-10T19:01:58.471Z,87.35
2018-07-10T19:04:31.047Z,87.81
2018-07-10T19:06:59.577Z,88.97
2018-07-10T19:09:33.797Z,90.12
2018-07-10T19:12:04.013Z,89.54
2018-07-10T19:14:32.468Z,90.38
2018-07-10T19:17:00.884Z,88.62
2018-07-10T19:19:29.487Z,88.06
2018-07-10T19:22:03.064Z,87.94
2018-07-10T19:24:31.664Z,88.24
2018-07-10T19:27:00.727Z,89.12
2018-07-10T19:29:35.805Z,90.67
2018-07-10T19:32:04.680Z,90.33
2018-07-10T19:34:33.198Z,90.32
2018-07-10T19:37:01.743Z,90.19
2018-07-10T19:39:30.191Z,89.25
2018-07-10T19:41:59.036Z,89.35
2018-07-10T19:44:27.581Z,89.89
2018-07-10T19:46:56.450Z,90.52
2018-07-10T19:49:25.222Z,89.47
2018-07-10T19:51:53.858Z,88.52
2018-07-10T19:54:22.468Z,90.43
2018-07-10T19:56:50.988Z,91.37
2018-07-10T19:59:19.519Z,92.13
2018-07-10T20:01:53.549Z,92.29
2018-07-10T20:04:43.202Z,92.23
2018-07-10T20:07:22.552Z,92.70
2018-07-10T20:09:55.068Z,93.14
2018-07-10T20:12:34.338Z,92.47
2018-07-10T20:17:23.199Z,92.76
2018-07-10T20:20:10.137Z,92.01
2018-07-10T20:22:52.182Z,91.92
2018-07-10T20:25:29.887Z,91.78
2018-07-10T20:28:04.600Z,92.24
2018-07-10T20:30:45.617Z,92.06
2018-07-10T20:34:21.601Z,92.20
2018-07-10T20:36:54.826Z,90.63
2018-07-10T20:39:33.046Z,90.99
2018-07-10T20:42:02.700Z,90.30
2018-07-10T20:44:33.246Z,90.81
2018-07-10T20:47:04.092Z,90.39
2018-07-10T20:49:46.579Z,90.80
2018-07-10T20:52:18.657Z,92.50
2018-07-10T20:54:54.478Z,93.59
2018-07-10T20:57:30.444Z,93.63
2018-07-10T21:00:08.786Z,93.24
2018-07-10T21:03:47.951Z,93.08
2018-07-10T21:07:04.090Z,93.63
2018-07-10T21:09:47.446Z,93.81
2018-07-10T21:12:18.880Z,93.76
2018-07-10T21:15:23.396Z,93.78
2018-07-10T21:19:01.440Z,93.99
2018-07-10T21:21:45.816Z,93.90
2018-07-10T21:24:17.856Z,93.75
2018-07-10T21:26:54.096Z,93.70
2018-07-10T21:30:32.963Z,93.54
2018-07-10T21:34:14.956Z,93.05
2018-07-10T21:37:55.665Z,91.72
2018-07-10T21:40:31.789Z,92.17
2018-07-10T21:44:14.587Z,91.88
2018-07-10T21:46:56.151Z,92.21
2018-07-10T21:50:01.339Z,92.12
2018-07-10T21:52:30.080Z,92.43
2018-07-10T21:54:58.513Z,91.90
2018-07-10T21:57:32.574Z,91.47
2018-07-10T22:00:01.400Z,92.28
2018-07-10T22:02:30.458Z,93.70
2018-07-10T22:04:59.467Z,94.22
2018-07-10T22:07:28.833Z,93.31
2018-07-10T22:10:01.658Z,92.58
2018-07-10T22:12:30.007Z,92.56
2018-07-10T22:14:58.399Z,93.32
2018-07-10T22:17:27.686Z,93.14
2018-07-10T22:19:57.143Z,92.04
2018-07-10T22:22:30.078Z,91.75
2018-07-10T22:24:59.974Z,92.35
2018-07-10T22:27:28.375Z,92.74
2018-07-10T22:30:04.715Z,92.93
2018-07-10T22:32:47.063Z,92.54
2018-07-10T22:35:16.355Z,91.61
2018-07-10T22:37:44.698Z,91.47
2018-07-10T22:40:13.059Z,91.57
2018-07-10T22:42:41.338Z,91.22
2018-07-10T22:45:09.767Z,90.83
2018-07-10T22:47:39.751Z,90.86
2018-07-10T22:50:12.979Z,91.12
2018-07-10T22:52:51.856Z,91.06
2018-07-10T22:55:22.072Z,91.14
2018-07-10T22:57:52.108Z,91.07
2018-07-10T23:00:32.485Z,91.43
2018-07-10T23:03:01.659Z,90.93
2018-07-10T23:05:30.140Z,90.14
2018-07-10T23:07:58.459Z,91.02
2018-07-10T23:10:27.411Z,91.19
2018-07-10T23:12:55.695Z,91.08
2018-07-10T23:15:24.037Z,91.16
2018-07-10T23:17:52.354Z,91.57
2018-07-10T23:20:22.249Z,91.85
2018-07-10T23:22:54.902Z,91.23
2018-07-10T23:25:25.288Z,90.97
2018-07-10T23:28:01.660Z,91.22
2018-07-10T23:30:35.427Z,91.55
2018-07-10T23:33:03.880Z,91.54
2018-07-10T23:35:33.519Z,90.81
2018-07-10T23:38:08.793Z,91.29
2018-07-10T23:40:39.543Z,92.64
2018-07-10T23:43:07.865Z,92.18
2018-07-10T23:45:36.283Z,92.57
2018-07-10T23:48:05.439Z,93.37
2018-07-10T23:50:34.767Z,93.73
2018-07-10T23:53:16.063Z,94.03
2018-07-10T23:55:44.351Z,94.05
2018-07-10T23:58:13.157Z,92.79
